sensor_id;sensor_type;location;lat;lon;timestamp;temperature;humidity
70051;SHT30;57391;51.306;22.680;2023-03-04T00:02:07;0.85;76.52
70051;SHT30;57391;51.306;22.680;2023-03-04T00:04:34;0.86;76.60
70051;SHT30;57391;51.306;22.680;2023-03-04T00:07:01;0.88;76.63
70051;SHT30;57391;51.306;22.680;2023-03-04T00:09:28;0.90;76.52
70051;SHT30;57391;51.306;22.680;2023-03-04T00:11:56;0.92;76.50
70051;SHT30;57391;51.306;22.680;2023-03-04T00:14:23;0.93;76.35
70051;SHT30;57391;51.306;22.680;2023-03-04T00:16:50;0.92;76.20
70051;SHT30;57391;51.306;22.680;2023-03-04T00:19:18;0.91;76.16
70051;SHT30;57391;51.306;22.680;2023-03-04T00:21:45;0.91;76.10
70051;SHT30;57391;51.306;22.680;2023-03-04T00:24:12;0.90;76.08
70051;SHT30;57391;51.306;22.680;2023-03-04T00:26:38;0.90;76.10
70051;SHT30;57391;51.306;22.680;2023-03-04T00:29:06;0.88;76.08
70051;SHT30;57391;51.306;22.680;2023-03-04T00:31:32;0.88;76.10
70051;SHT30;57391;51.306;22.680;2023-03-04T00:34:00;0.87;76.22
70051;SHT30;57391;51.306;22.680;2023-03-04T00:36:27;0.87;76.24
70051;SHT30;57391;51.306;22.680;2023-03-04T00:38:55;0.86;76.31
70051;SHT30;57391;51.306;22.680;2023-03-04T00:41:22;0.86;76.34
70051;SHT30;57391;51.306;22.680;2023-03-04T00:43:50;0.88;76.43
70051;SHT30;57391;51.306;22.680;2023-03-04T00:46:17;0.88;76.45
70051;SHT30;57391;51.306;22.680;2023-03-04T00:48:44;0.88;76.55
70051;SHT30;57391;51.306;22.680;2023-03-04T00:51:11;0.89;76.68
70051;SHT30;57391;51.306;22.680;2023-03-04T00:53:38;0.90;76.80
70051;SHT30;57391;51.306;22.680;2023-03-04T00:56:05;0.90;76.84
70051;SHT30;57391;51.306;22.680;2023-03-04T00:58:33;0.90;76.92
70051;SHT30;57391;51.306;22.680;2023-03-04T01:01:00;0.91;76.94
70051;SHT30;57391;51.306;22.680;2023-03-04T01:03:27;0.92;76.96
70051;SHT30;57391;51.306;22.680;2023-03-04T01:05:57;0.93;76.91
70051;SHT30;57391;51.306;22.680;2023-03-04T01:08:25;0.93;76.64
70051;SHT30;57391;51.306;22.680;2023-03-04T01:10:53;0.92;76.34
70051;SHT30;57391;51.306;22.680;2023-03-04T01:13:20;0.90;75.90
70051;SHT30;57391;51.306;22.680;2023-03-04T01:15:47;0.86;75.37
70051;SHT30;57391;51.306;22.680;2023-03-04T01:18:14;0.82;75.43
70051;SHT30;57391;51.306;22.680;2023-03-04T01:20:41;0.78;75.51
70051;SHT30;57391;51.306;22.680;2023-03-04T01:23:08;0.78;75.70
70051;SHT30;57391;51.306;22.680;2023-03-04T01:25:35;0.77;75.89
70051;SHT30;57391;51.306;22.680;2023-03-04T01:28:02;0.77;76.02
70051;SHT30;57391;51.306;22.680;2023-03-04T01:30:30;0.77;75.94
70051;SHT30;57391;51.306;22.680;2023-03-04T01:32:57;0.76;75.78
70051;SHT30;57391;51.306;22.680;2023-03-04T01:35:24;0.76;75.75
70051;SHT30;57391;51.306;22.680;2023-03-04T01:37:51;0.76;75.63
70051;SHT30;57391;51.306;22.680;2023-03-04T01:40:18;0.74;75.37
70051;SHT30;57391;51.306;22.680;2023-03-04T01:42:46;0.72;75.26
70051;SHT30;57391;51.306;22.680;2023-03-04T01:45:14;0.70;75.30
70051;SHT30;57391;51.306;22.680;2023-03-04T01:47:45;0.70;75.31
70051;SHT30;57391;51.306;22.680;2023-03-04T01:50:16;0.69;75.51
70051;SHT30;57391;51.306;22.680;2023-03-04T01:52:55;0.70;75.51
70051;SHT30;57391;51.306;22.680;2023-03-04T01:55:22;0.71;75.57
70051;SHT30;57391;51.306;22.680;2023-03-04T01:57:50;0.72;75.58
70051;SHT30;57391;51.306;22.680;2023-03-04T02:03:12;0.73;75.64
70051;SHT30;57391;51.306;22.680;2023-03-04T02:05:42;0.74;75.75
70051;SHT30;57391;51.306;22.680;2023-03-04T02:08:13;0.76;75.91
70051;SHT30;57391;51.306;22.680;2023-03-04T02:10:43;0.76;75.83
70051;SHT30;57391;51.306;22.680;2023-03-04T02:13:11;0.77;75.89
70051;SHT30;57391;51.306;22.680;2023-03-04T02:15:41;0.78;76.12
70051;SHT30;57391;51.306;22.680;2023-03-04T02:18:15;0.79;76.12
70051;SHT30;57391;51.306;22.680;2023-03-04T02:20:53;0.81;76.11
70051;SHT30;57391;51.306;22.680;2023-03-04T02:26:21;0.83;76.15
70051;SHT30;57391;51.306;22.680;2023-03-04T02:28:59;0.82;75.68
70051;SHT30;57391;51.306;22.680;2023-03-04T02:33:57;0.79;75.19
70051;SHT30;57391;51.306;22.680;2023-03-04T02:36:47;0.76;75.09
70051;SHT30;57391;51.306;22.680;2023-03-04T02:41:46;0.74;75.25
70051;SHT30;57391;51.306;22.680;2023-03-04T02:44:17;0.74;75.34
70051;SHT30;57391;51.306;22.680;2023-03-04T02:46:49;0.73;75.60
70051;SHT30;57391;51.306;22.680;2023-03-04T02:49:18;0.74;75.57
70051;SHT30;57391;51.306;22.680;2023-03-04T02:51:46;0.73;75.53
70051;SHT30;57391;51.306;22.680;2023-03-04T02:54:20;0.73;75.33
70051;SHT30;57391;51.306;22.680;2023-03-04T02:56:54;0.72;75.19
70051;SHT30;57391;51.306;22.680;2023-03-04T02:59:25;0.69;75.12
70051;SHT30;57391;51.306;22.680;2023-03-04T03:01:53;0.70;75.16
70051;SHT30;57391;51.306;22.680;2023-03-04T03:04:21;0.70;74.94
70051;SHT30;57391;51.306;22.680;2023-03-04T03:06:51;0.70;74.97
70051;SHT30;57391;51.306;22.680;2023-03-04T03:09:19;0.68;75.00
70051;SHT30;57391;51.306;22.680;2023-03-04T03:11:46;0.68;74.88
70051;SHT30;57391;51.306;22.680;2023-03-04T03:14:14;0.68;75.14
70051;SHT30;57391;51.306;22.680;2023-03-04T03:16:41;0.67;75.21
70051;SHT30;57391;51.306;22.680;2023-03-04T03:19:09;0.69;75.36
70051;SHT30;57391;51.306;22.680;2023-03-04T03:21:36;0.69;75.51
70051;SHT30;57391;51.306;22.680;2023-03-04T03:24:04;0.70;75.37
70051;SHT30;57391;51.306;22.680;2023-03-04T03:26:32;0.71;75.37
70051;SHT30;57391;51.306;22.680;2023-03-04T03:28:59;0.72;75.31
70051;SHT30;57391;51.306;22.680;2023-03-04T03:31:27;0.70;75.29
70051;SHT30;57391;51.306;22.680;2023-03-04T03:33:54;0.69;75.35
70051;SHT30;57391;51.306;22.680;2023-03-04T03:36:22;0.69;75.44
70051;SHT30;57391;51.306;22.680;2023-03-04T03:38:48;0.69;75.38
70051;SHT30;57391;51.306;22.680;2023-03-04T03:41:16;0.71;75.29
70051;SHT30;57391;51.306;22.680;2023-03-04T03:43:42;0.71;75.35
70051;SHT30;57391;51.306;22.680;2023-03-04T03:46:10;0.71;75.42
70051;SHT30;57391;51.306;22.680;2023-03-04T03:48:36;0.73;75.34
70051;SHT30;57391;51.306;22.680;2023-03-04T03:51:04;0.75;75.32
70051;SHT30;57391;51.306;22.680;2023-03-04T03:53:31;0.75;75.37
70051;SHT30;57391;51.306;22.680;2023-03-04T03:55:58;0.75;75.30
70051;SHT30;57391;51.306;22.680;2023-03-04T03:58:25;0.76;75.37
70051;SHT30;57391;51.306;22.680;2023-03-04T04:00:52;0.76;75.38
70051;SHT30;57391;51.306;22.680;2023-03-04T04:03:19;0.77;75.42
70051;SHT30;57391;51.306;22.680;2023-03-04T04:05:47;0.77;75.34
70051;SHT30;57391;51.306;22.680;2023-03-04T04:08:15;0.77;75.45
70051;SHT30;57391;51.306;22.680;2023-03-04T04:10:43;0.77;75.48
70051;SHT30;57391;51.306;22.680;2023-03-04T04:13:10;0.79;75.69
70051;SHT30;57391;51.306;22.680;2023-03-04T04:15:37;0.81;75.55
70051;SHT30;57391;51.306;22.680;2023-03-04T04:18:04;0.80;75.52
70051;SHT30;57391;51.306;22.680;2023-03-04T04:20:33;0.82;75.69
70051;SHT30;57391;51.306;22.680;2023-03-04T04:23:01;0.83;75.62
70051;SHT30;57391;51.306;22.680;2023-03-04T04:25:30;0.85;75.60
70051;SHT30;57391;51.306;22.680;2023-03-04T04:27:57;0.86;75.57
70051;SHT30;57391;51.306;22.680;2023-03-04T04:30:24;0.87;75.49
70051;SHT30;57391;51.306;22.680;2023-03-04T04:32:51;0.87;75.36
70051;SHT30;57391;51.306;22.680;2023-03-04T04:35:19;0.87;75.42
70051;SHT30;57391;51.306;22.680;2023-03-04T04:37:46;0.87;75.50
70051;SHT30;57391;51.306;22.680;2023-03-04T04:40:14;0.88;75.57
70051;SHT30;57391;51.306;22.680;2023-03-04T04:42:41;0.91;75.54
70051;SHT30;57391;51.306;22.680;2023-03-04T04:45:08;0.92;75.49
70051;SHT30;57391;51.306;22.680;2023-03-04T04:47:36;0.94;75.60
70051;SHT30;57391;51.306;22.680;2023-03-04T04:50:05;0.95;75.63
70051;SHT30;57391;51.306;22.680;2023-03-04T04:52:32;0.97;75.77
70051;SHT30;57391;51.306;22.680;2023-03-04T04:54:59;1.01;75.79
70051;SHT30;57391;51.306;22.680;2023-03-04T04:57:27;1.02;75.72
70051;SHT30;57391;51.306;22.680;2023-03-04T04:59:54;1.03;75.62
70051;SHT30;57391;51.306;22.680;2023-03-04T05:02:21;1.03;75.63
70051;SHT30;57391;51.306;22.680;2023-03-04T05:04:48;1.05;75.62
70051;SHT30;57391;51.306;22.680;2023-03-04T05:07:15;1.06;75.64
70051;SHT30;57391;51.306;22.680;2023-03-04T05:09:42;1.08;75.65
70051;SHT30;57391;51.306;22.680;2023-03-04T05:12:09;1.10;75.74
70051;SHT30;57391;51.306;22.680;2023-03-04T05:14:37;1.12;75.74
70051;SHT30;57391;51.306;22.680;2023-03-04T05:17:04;1.13;75.77
70051;SHT30;57391;51.306;22.680;2023-03-04T05:19:31;1.14;75.68
70051;SHT30;57391;51.306;22.680;2023-03-04T05:21:58;1.17;75.68
70051;SHT30;57391;51.306;22.680;2023-03-04T05:24:25;1.17;75.70
70051;SHT30;57391;51.306;22.680;2023-03-04T05:26:53;1.18;75.69
70051;SHT30;57391;51.306;22.680;2023-03-04T05:29:20;1.19;75.80
70051;SHT30;57391;51.306;22.680;2023-03-04T05:31:47;1.20;75.85
70051;SHT30;57391;51.306;22.680;2023-03-04T05:34:14;1.22;75.88
70051;SHT30;57391;51.306;22.680;2023-03-04T05:36:41;1.21;75.80
70051;SHT30;57391;51.306;22.680;2023-03-04T05:39:08;1.24;75.63
70051;SHT30;57391;51.306;22.680;2023-03-04T05:41:35;1.25;75.66
70051;SHT30;57391;51.306;22.680;2023-03-04T05:44:03;1.26;75.72
70051;SHT30;57391;51.306;22.680;2023-03-04T05:46:30;1.28;75.63
70051;SHT30;57391;51.306;22.680;2023-03-04T05:48:57;1.29;75.74
70051;SHT30;57391;51.306;22.680;2023-03-04T05:51:24;1.30;75.74
70051;SHT30;57391;51.306;22.680;2023-03-04T05:53:52;1.31;75.69
70051;SHT30;57391;51.306;22.680;2023-03-04T05:56:19;1.30;75.56
70051;SHT30;57391;51.306;22.680;2023-03-04T05:58:46;1.31;75.73
70051;SHT30;57391;51.306;22.680;2023-03-04T06:01:14;1.34;75.83
70051;SHT30;57391;51.306;22.680;2023-03-04T06:03:43;1.35;75.83
70051;SHT30;57391;51.306;22.680;2023-03-04T06:06:10;1.35;75.73
70051;SHT30;57391;51.306;22.680;2023-03-04T06:08:38;1.34;75.86
70051;SHT30;57391;51.306;22.680;2023-03-04T06:11:05;1.34;75.86
70051;SHT30;57391;51.306;22.680;2023-03-04T06:13:33;1.36;75.84
70051;SHT30;57391;51.306;22.680;2023-03-04T06:16:00;1.37;75.91
70051;SHT30;57391;51.306;22.680;2023-03-04T06:18:28;1.38;75.87
70051;SHT30;57391;51.306;22.680;2023-03-04T06:20:59;1.39;75.90
70051;SHT30;57391;51.306;22.680;2023-03-04T06:23:29;1.40;75.84
70051;SHT30;57391;51.306;22.680;2023-03-04T06:25:57;1.41;75.83
70051;SHT30;57391;51.306;22.680;2023-03-04T06:28:28;1.42;75.86
70051;SHT30;57391;51.306;22.680;2023-03-04T06:30:56;1.43;75.82
70051;SHT30;57391;51.306;22.680;2023-03-04T06:33:24;1.45;75.90
70051;SHT30;57391;51.306;22.680;2023-03-04T06:35:52;1.47;75.88
70051;SHT30;57391;51.306;22.680;2023-03-04T06:38:22;1.47;75.90
70051;SHT30;57391;51.306;22.680;2023-03-04T06:40:51;1.48;75.84
70051;SHT30;57391;51.306;22.680;2023-03-04T06:43:19;1.49;75.82
70051;SHT30;57391;51.306;22.680;2023-03-04T06:45:47;1.52;75.83
70051;SHT30;57391;51.306;22.680;2023-03-04T06:48:15;1.54;75.87
70051;SHT30;57391;51.306;22.680;2023-03-04T06:50:42;1.56;75.78
70051;SHT30;57391;51.306;22.680;2023-03-04T06:53:09;1.59;75.72
70051;SHT30;57391;51.306;22.680;2023-03-04T06:55:37;1.60;75.70
70051;SHT30;57391;51.306;22.680;2023-03-04T06:58:04;1.62;75.68
70051;SHT30;57391;51.306;22.680;2023-03-04T07:00:31;1.63;75.60
70051;SHT30;57391;51.306;22.680;2023-03-04T07:03:02;1.65;75.60
70051;SHT30;57391;51.306;22.680;2023-03-04T07:05:29;1.67;75.62
70051;SHT30;57391;51.306;22.680;2023-03-04T07:07:56;1.68;75.59
70051;SHT30;57391;51.306;22.680;2023-03-04T07:10:23;1.69;75.55
70051;SHT30;57391;51.306;22.680;2023-03-04T07:12:50;1.71;75.53
70051;SHT30;57391;51.306;22.680;2023-03-04T07:15:18;1.71;75.50
70051;SHT30;57391;51.306;22.680;2023-03-04T07:17:45;1.73;75.57
70051;SHT30;57391;51.306;22.680;2023-03-04T07:20:12;1.76;75.60
70051;SHT30;57391;51.306;22.680;2023-03-04T07:22:40;1.75;75.58
70051;SHT30;57391;51.306;22.680;2023-03-04T07:25:11;1.76;75.53
70051;SHT30;57391;51.306;22.680;2023-03-04T07:27:38;1.79;75.61
70051;SHT30;57391;51.306;22.680;2023-03-04T07:30:19;1.80;75.62
70051;SHT30;57391;51.306;22.680;2023-03-04T07:32:46;1.82;75.68
70051;SHT30;57391;51.306;22.680;2023-03-04T07:35:14;1.85;75.70
70051;SHT30;57391;51.306;22.680;2023-03-04T07:37:42;1.84;75.70
70051;SHT30;57391;51.306;22.680;2023-03-04T07:40:09;1.85;75.81
70051;SHT30;57391;51.306;22.680;2023-03-04T07:42:37;1.86;75.95
70051;SHT30;57391;51.306;22.680;2023-03-04T07:45:08;1.86;75.95
70051;SHT30;57391;51.306;22.680;2023-03-04T07:47:37;1.86;76.02
70051;SHT30;57391;51.306;22.680;2023-03-04T07:50:05;1.86;76.14
70051;SHT30;57391;51.306;22.680;2023-03-04T07:52:36;1.87;76.25
70051;SHT30;57391;51.306;22.680;2023-03-04T07:55:05;1.89;76.27
70051;SHT30;57391;51.306;22.680;2023-03-04T07:57:33;1.88;76.25
70051;SHT30;57391;51.306;22.680;2023-03-04T08:00:00;1.89;76.25
70051;SHT30;57391;51.306;22.680;2023-03-04T08:02:27;1.88;76.34
70051;SHT30;57391;51.306;22.680;2023-03-04T08:04:54;1.90;76.42
70051;SHT30;57391;51.306;22.680;2023-03-04T08:07:22;1.90;76.52
70051;SHT30;57391;51.306;22.680;2023-03-04T08:09:49;1.90;76.42
70051;SHT30;57391;51.306;22.680;2023-03-04T08:12:16;1.92;76.65
70051;SHT30;57391;51.306;22.680;2023-03-04T08:14:44;1.93;76.77
70051;SHT30;57391;51.306;22.680;2023-03-04T08:17:12;1.93;76.70
70051;SHT30;57391;51.306;22.680;2023-03-04T08:19:41;1.95;76.74
70051;SHT30;57391;51.306;22.680;2023-03-04T08:22:08;1.94;76.87
70051;SHT30;57391;51.306;22.680;2023-03-04T08:24:38;1.95;76.92
70051;SHT30;57391;51.306;22.680;2023-03-04T08:27:05;1.95;76.95
70051;SHT30;57391;51.306;22.680;2023-03-04T08:29:33;1.96;76.94
70051;SHT30;57391;51.306;22.680;2023-03-04T08:32:00;1.96;77.01
70051;SHT30;57391;51.306;22.680;2023-03-04T08:34:27;1.96;77.30
70051;SHT30;57391;51.306;22.680;2023-03-04T08:36:55;1.95;77.34
70051;SHT30;57391;51.306;22.680;2023-03-04T08:39:22;1.95;77.30
70051;SHT30;57391;51.306;22.680;2023-03-04T08:41:49;1.96;77.36
70051;SHT30;57391;51.306;22.680;2023-03-04T08:44:17;1.97;77.33
70051;SHT30;57391;51.306;22.680;2023-03-04T08:46:45;1.98;77.29
70051;SHT30;57391;51.306;22.680;2023-03-04T08:49:13;1.99;77.27
70051;SHT30;57391;51.306;22.680;2023-03-04T08:51:40;2.00;77.51
70051;SHT30;57391;51.306;22.680;2023-03-04T08:54:08;2.00;77.42
70051;SHT30;57391;51.306;22.680;2023-03-04T08:56:35;2.02;77.30
70051;SHT30;57391;51.306;22.680;2023-03-04T08:59:02;2.03;77.26
70051;SHT30;57391;51.306;22.680;2023-03-04T09:01:29;2.04;77.23
70051;SHT30;57391;51.306;22.680;2023-03-04T09:03:56;2.05;77.04
70051;SHT30;57391;51.306;22.680;2023-03-04T09:06:24;2.06;77.05
70051;SHT30;57391;51.306;22.680;2023-03-04T09:08:51;2.07;77.12
70051;SHT30;57391;51.306;22.680;2023-03-04T09:11:18;2.09;76.84
70051;SHT30;57391;51.306;22.680;2023-03-04T09:13:46;2.09;77.07
70051;SHT30;57391;51.306;22.680;2023-03-04T09:16:13;2.12;77.10
70051;SHT30;57391;51.306;22.680;2023-03-04T09:18:41;2.12;76.94
70051;SHT30;57391;51.306;22.680;2023-03-04T09:21:10;2.12;76.96
70051;SHT30;57391;51.306;22.680;2023-03-04T09:23:37;2.12;76.89
70051;SHT30;57391;51.306;22.680;2023-03-04T09:26:15;2.13;76.89
70051;SHT30;57391;51.306;22.680;2023-03-04T09:28:49;2.16;77.00
70051;SHT30;57391;51.306;22.680;2023-03-04T09:31:19;2.16;76.86
70051;SHT30;57391;51.306;22.680;2023-03-04T09:33:47;2.18;76.92
70051;SHT30;57391;51.306;22.680;2023-03-04T09:36:15;2.18;76.90
70051;SHT30;57391;51.306;22.680;2023-03-04T09:38:43;2.19;76.82
70051;SHT30;57391;51.306;22.680;2023-03-04T09:41:14;2.19;76.97
70051;SHT30;57391;51.306;22.680;2023-03-04T09:43:48;2.20;76.83
70051;SHT30;57391;51.306;22.680;2023-03-04T09:46:20;2.20;76.84
70051;SHT30;57391;51.306;22.680;2023-03-04T09:48:59;2.20;76.74
70051;SHT30;57391;51.306;22.680;2023-03-04T09:51:40;2.20;76.78
70051;SHT30;57391;51.306;22.680;2023-03-04T09:57:29;2.22;76.74
70051;SHT30;57391;51.306;22.680;2023-03-04T10:00:25;2.22;76.48
70051;SHT30;57391;51.306;22.680;2023-03-04T10:03:24;2.23;76.58
70051;SHT30;57391;51.306;22.680;2023-03-04T10:06:10;2.24;76.54
70051;SHT30;57391;51.306;22.680;2023-03-04T10:11:37;2.25;76.21
70051;SHT30;57391;51.306;22.680;2023-03-04T10:16:51;2.24;76.10
70051;SHT30;57391;51.306;22.680;2023-03-04T10:22:59;2.25;75.90
70051;SHT30;57391;51.306;22.680;2023-03-04T10:25:37;2.25;75.54
70051;SHT30;57391;51.306;22.680;2023-03-04T10:28:16;2.26;75.70
70051;SHT30;57391;51.306;22.680;2023-03-04T10:33:31;2.30;75.56
70051;SHT30;57391;51.306;22.680;2023-03-04T10:36:03;2.29;75.37
70051;SHT30;57391;51.306;22.680;2023-03-04T10:38:33;2.29;75.22
70051;SHT30;57391;51.306;22.680;2023-03-04T10:41:24;2.32;75.40
70051;SHT30;57391;51.306;22.680;2023-03-04T10:46:46;2.31;75.30
70051;SHT30;57391;51.306;22.680;2023-03-04T10:49:16;2.31;75.11
70051;SHT30;57391;51.306;22.680;2023-03-04T10:59:46;2.34;74.98
70051;SHT30;57391;51.306;22.680;2023-03-04T11:08:54;2.36;74.83
70051;SHT30;57391;51.306;22.680;2023-03-04T11:11:26;2.37;74.79
70051;SHT30;57391;51.306;22.680;2023-03-04T11:14:27;2.41;74.73
70051;SHT30;57391;51.306;22.680;2023-03-04T11:17:18;2.44;74.52
70051;SHT30;57391;51.306;22.680;2023-03-04T11:22:34;2.51;74.34
70051;SHT30;57391;51.306;22.680;2023-03-04T11:25:02;2.58;74.51
70051;SHT30;57391;51.306;22.680;2023-03-04T11:27:41;2.63;74.16
70051;SHT30;57391;51.306;22.680;2023-03-04T11:33:20;2.67;74.01
70051;SHT30;57391;51.306;22.680;2023-03-04T11:39:23;2.66;73.71
70051;SHT30;57391;51.306;22.680;2023-03-04T11:45:21;2.68;73.79
70051;SHT30;57391;51.306;22.680;2023-03-04T11:54:10;2.64;73.98
70051;SHT30;57391;51.306;22.680;2023-03-04T11:56:44;2.65;74.10
70051;SHT30;57391;51.306;22.680;2023-03-04T12:13:17;2.62;74.07
70051;SHT30;57391;51.306;22.680;2023-03-04T12:26:57;2.68;74.05
70051;SHT30;57391;51.306;22.680;2023-03-04T12:29:56;2.71;74.14
70051;SHT30;57391;51.306;22.680;2023-03-04T12:33:24;2.74;73.98
70051;SHT30;57391;51.306;22.680;2023-03-04T12:42:03;2.76;73.84
70051;SHT30;57391;51.306;22.680;2023-03-04T12:59:45;2.85;73.87
70051;SHT30;57391;51.306;22.680;2023-03-04T13:14:06;2.98;73.57
70051;SHT30;57391;51.306;22.680;2023-03-04T13:36:02;3.05;73.88
70051;SHT30;57391;51.306;22.680;2023-03-04T13:38:35;3.08;74.23
70051;SHT30;57391;51.306;22.680;2023-03-04T13:44:54;3.10;74.37
70051;SHT30;57391;51.306;22.680;2023-03-04T13:47:29;3.11;74.43
70051;SHT30;57391;51.306;22.680;2023-03-04T13:50:22;3.11;74.45
70051;SHT30;57391;51.306;22.680;2023-03-04T13:56:08;3.15;74.53
70051;SHT30;57391;51.306;22.680;2023-03-04T14:04:27;3.13;75.40
70051;SHT30;57391;51.306;22.680;2023-03-04T14:07:02;3.12;75.58
70051;SHT30;57391;51.306;22.680;2023-03-04T14:10:05;3.13;75.81
70051;SHT30;57391;51.306;22.680;2023-03-04T14:12:50;3.14;75.86
70051;SHT30;57391;51.306;22.680;2023-03-04T14:17:55;3.20;75.90
70051;SHT30;57391;51.306;22.680;2023-03-04T14:23:06;3.22;76.28
70051;SHT30;57391;51.306;22.680;2023-03-04T14:26:05;3.21;76.37
70051;SHT30;57391;51.306;22.680;2023-03-04T14:28:44;3.22;76.61
70051;SHT30;57391;51.306;22.680;2023-03-04T14:31:16;3.21;76.74
70051;SHT30;57391;51.306;22.680;2023-03-04T14:33:49;3.20;76.90
70051;SHT30;57391;51.306;22.680;2023-03-04T14:36:24;3.20;77.07
70051;SHT30;57391;51.306;22.680;2023-03-04T14:38:55;3.19;77.10
70051;SHT30;57391;51.306;22.680;2023-03-04T14:41:28;3.18;77.37
70051;SHT30;57391;51.306;22.680;2023-03-04T14:46:55;3.11;78.12
70051;SHT30;57391;51.306;22.680;2023-03-04T14:49:31;3.09;78.47
70051;SHT30;57391;51.306;22.680;2023-03-04T14:52:02;3.07;78.79
70051;SHT30;57391;51.306;22.680;2023-03-04T14:54:37;3.06;79.12
70051;SHT30;57391;51.306;22.680;2023-03-04T14:57:41;3.04;79.28
70051;SHT30;57391;51.306;22.680;2023-03-04T15:03:02;3.05;79.50
70051;SHT30;57391;51.306;22.680;2023-03-04T15:05:42;3.04;79.65
70051;SHT30;57391;51.306;22.680;2023-03-04T15:08:19;3.03;79.62
70051;SHT30;57391;51.306;22.680;2023-03-04T15:10:54;3.00;79.87
70051;SHT30;57391;51.306;22.680;2023-03-04T15:16:17;2.94;80.39
70051;SHT30;57391;51.306;22.680;2023-03-04T15:21:38;2.92;80.66
70051;SHT30;57391;51.306;22.680;2023-03-04T15:24:07;2.93;80.75
70051;SHT30;57391;51.306;22.680;2023-03-04T15:26:40;2.90;80.77
70051;SHT30;57391;51.306;22.680;2023-03-04T15:31:45;2.88;81.02
70051;SHT30;57391;51.306;22.680;2023-03-04T15:34:18;2.87;81.12
70051;SHT30;57391;51.306;22.680;2023-03-04T15:36:48;2.88;81.31
70051;SHT30;57391;51.306;22.680;2023-03-04T15:39:17;2.88;81.43
70051;SHT30;57391;51.306;22.680;2023-03-04T15:41:47;2.90;81.45
70051;SHT30;57391;51.306;22.680;2023-03-04T15:44:16;2.90;81.50
70051;SHT30;57391;51.306;22.680;2023-03-04T15:46:43;2.88;81.45
70051;SHT30;57391;51.306;22.680;2023-03-04T15:49:10;2.81;81.46
70051;SHT30;57391;51.306;22.680;2023-03-04T15:51:38;2.74;81.57
70051;SHT30;57391;51.306;22.680;2023-03-04T15:54:06;2.68;81.80
70051;SHT30;57391;51.306;22.680;2023-03-04T15:56:39;2.64;82.04
70051;SHT30;57391;51.306;22.680;2023-03-04T15:59:14;2.62;82.23
70051;SHT30;57391;51.306;22.680;2023-03-04T16:01:42;2.62;82.45
70051;SHT30;57391;51.306;22.680;2023-03-04T16:04:14;2.63;82.64
70051;SHT30;57391;51.306;22.680;2023-03-04T16:06:43;2.64;82.84
70051;SHT30;57391;51.306;22.680;2023-03-04T16:09:14;2.65;83.02
70051;SHT30;57391;51.306;22.680;2023-03-04T16:11:45;2.64;83.09
70051;SHT30;57391;51.306;22.680;2023-03-04T16:14:13;2.65;83.05
70051;SHT30;57391;51.306;22.680;2023-03-04T16:16:42;2.66;82.87
70051;SHT30;57391;51.306;22.680;2023-03-04T16:19:12;2.66;82.73
70051;SHT30;57391;51.306;22.680;2023-03-04T16:21:40;2.66;82.50
70051;SHT30;57391;51.306;22.680;2023-03-04T16:24:11;2.67;82.28
70051;SHT30;57391;51.306;22.680;2023-03-04T16:26:44;2.69;82.11
70051;SHT30;57391;51.306;22.680;2023-03-04T16:29:14;2.70;81.92
70051;SHT30;57391;51.306;22.680;2023-03-04T16:31:42;2.71;81.88
70051;SHT30;57391;51.306;22.680;2023-03-04T16:34:10;2.70;81.81
70051;SHT30;57391;51.306;22.680;2023-03-04T16:36:37;2.70;81.87
70051;SHT30;57391;51.306;22.680;2023-03-04T16:39:05;2.71;81.74
70051;SHT30;57391;51.306;22.680;2023-03-04T16:41:45;2.70;81.61
70051;SHT30;57391;51.306;22.680;2023-03-04T16:44:12;2.67;81.61
70051;SHT30;57391;51.306;22.680;2023-03-04T16:46:40;2.65;81.51
70051;SHT30;57391;51.306;22.680;2023-03-04T16:49:07;2.65;81.42
70051;SHT30;57391;51.306;22.680;2023-03-04T16:51:35;2.62;81.31
70051;SHT30;57391;51.306;22.680;2023-03-04T16:54:16;2.59;81.21
70051;SHT30;57391;51.306;22.680;2023-03-04T16:56:56;2.55;81.27
70051;SHT30;57391;51.306;22.680;2023-03-04T16:59:24;2.53;81.30
70051;SHT30;57391;51.306;22.680;2023-03-04T17:01:54;2.50;81.32
70051;SHT30;57391;51.306;22.680;2023-03-04T17:04:21;2.47;81.40
70051;SHT30;57391;51.306;22.680;2023-03-04T17:06:50;2.46;81.40
70051;SHT30;57391;51.306;22.680;2023-03-04T17:09:17;2.45;81.41
70051;SHT30;57391;51.306;22.680;2023-03-04T17:11:44;2.43;81.43
70051;SHT30;57391;51.306;22.680;2023-03-04T17:14:11;2.41;81.42
70051;SHT30;57391;51.306;22.680;2023-03-04T17:16:38;2.39;81.41
70051;SHT30;57391;51.306;22.680;2023-03-04T17:19:06;2.39;81.34
70051;SHT30;57391;51.306;22.680;2023-03-04T17:21:33;2.38;81.28
70051;SHT30;57391;51.306;22.680;2023-03-04T17:24:00;2.37;81.19
70051;SHT30;57391;51.306;22.680;2023-03-04T17:26:29;2.36;81.13
70051;SHT30;57391;51.306;22.680;2023-03-04T17:28:57;2.34;81.10
70051;SHT30;57391;51.306;22.680;2023-03-04T17:31:24;2.35;81.11
70051;SHT30;57391;51.306;22.680;2023-03-04T17:33:51;2.35;81.06
70051;SHT30;57391;51.306;22.680;2023-03-04T17:36:19;2.35;80.93
70051;SHT30;57391;51.306;22.680;2023-03-04T17:38:47;2.34;80.88
70051;SHT30;57391;51.306;22.680;2023-03-04T17:41:15;2.34;80.88
70051;SHT30;57391;51.306;22.680;2023-03-04T17:43:45;2.33;80.82
70051;SHT30;57391;51.306;22.680;2023-03-04T17:46:16;2.28;80.68
70051;SHT30;57391;51.306;22.680;2023-03-04T17:48:47;2.20;81.40
70051;SHT30;57391;51.306;22.680;2023-03-04T17:51:15;2.10;81.00
70051;SHT30;57391;51.306;22.680;2023-03-04T17:53:42;2.00;79.82
70051;SHT30;57391;51.306;22.680;2023-03-04T17:56:09;1.91;78.58
70051;SHT30;57391;51.306;22.680;2023-03-04T17:58:38;1.85;78.02
70051;SHT30;57391;51.306;22.680;2023-03-04T18:01:17;1.78;77.82
70051;SHT30;57391;51.306;22.680;2023-03-04T18:03:46;1.72;77.59
70051;SHT30;57391;51.306;22.680;2023-03-04T18:06:14;1.66;77.60
70051;SHT30;57391;51.306;22.680;2023-03-04T18:08:42;1.61;76.82
70051;SHT30;57391;51.306;22.680;2023-03-04T18:11:11;1.56;76.18
70051;SHT30;57391;51.306;22.680;2023-03-04T18:13:39;1.51;75.56
70051;SHT30;57391;51.306;22.680;2023-03-04T18:16:08;1.45;74.82
70051;SHT30;57391;51.306;22.680;2023-03-04T18:18:39;1.39;74.02
70051;SHT30;57391;51.306;22.680;2023-03-04T18:21:07;1.35;73.32
70051;SHT30;57391;51.306;22.680;2023-03-04T18:23:34;1.32;72.80
70051;SHT30;57391;51.306;22.680;2023-03-04T18:26:02;1.24;72.19
70051;SHT30;57391;51.306;22.680;2023-03-04T18:28:30;1.19;71.91
70051;SHT30;57391;51.306;22.680;2023-03-04T18:30:58;1.15;71.55
70051;SHT30;57391;51.306;22.680;2023-03-04T18:33:27;1.11;71.74
70051;SHT30;57391;51.306;22.680;2023-03-04T18:36:00;1.09;71.89
70051;SHT30;57391;51.306;22.680;2023-03-04T18:38:31;1.04;71.97
70051;SHT30;57391;51.306;22.680;2023-03-04T18:41:03;0.99;71.60